Meteo Giornale » Osservazioni meteo Italia » Decimomannu

ore: 15:55 - Osservazioni Meteo Decimomannu
Lat. 39° 21' N Lon. 8° 58' E Alt. 29 metri s.l.m.

sereno Europe/Rome

24 °C

Sereno

Temp. 24 Ore

12 °C

25 °C

Sud/Sud-Est

24 Km/h

Dew point 15 °C

Umidità 57 %

Visibilità  10 Km

Il sole sorge alle ore 06:31

Il sole tramonta alle ore 20:13

Data e Ora Cielo e Fenomeni T °C DP °C Um. % Pres. hPa Vis. km Vento km/h
Oggi h: 15:55 sereno Sereno 24 15 57 1015 10 S/SE 24
Oggi h: 14:55 sereno Sereno 25 14 50 1016 10 S/SE 25.9
Oggi h: 13:55 sereno Sereno 25 14 50 1016 10 S/SE 16.7
Oggi h: 12:55 sereno Sereno 25 15 53 1016 10 S/SE 14.8
Oggi h: 11:55 sereno Sereno 24 14 53 1017 10 SE 13
Oggi h: 10:55 sereno Sereno 22 14 60 1016 10 S/SE 7.4
Oggi h: 09:55 sereno Sereno 20 14 68 1016 10 N 5.5
Oggi h: 08:55 sereno Sereno 15 11 76 1016 10 N 3.7
Oggi h: 07:55 sereno Sereno 12 9 81 1016 10 N 3.7
Oggi h: 06:55 sereno Sereno 12 8 76 1016 10 NE 11.1
Oggi h: 05:55 sereno Sereno 12 8 76 1016 10 NE 13
Oggi h: 03:55 sereno Sereno 12 9 81 1016 10 N 5.5
Oggi h: 02:55 sereno Sereno 13 10 81 1016 10 N/NE 7.4
Oggi h: 01:55 sereno Sereno 13 11 87 1017 10 NE 9.3
Oggi h: 00:55 sereno Sereno 13 11 87 1017 10 NE 7.4
Ieri h: 23:55 sereno Sereno 15 12 82 1018 10 NE 7.4
Ieri h: 22:55 sereno Sereno 16 13 82 1018 10 N 5.5
Ieri h: 21:55 sereno Sereno 17 14 82 1018 10 N 5.5
Ieri h: 20:55 sereno Sereno 18 14 77 1017 10 E/SE 7.4
Ieri h: 19:55 sereno Sereno 20 16 77 1017 10 S/SE 11.1
Ieri h: 18:55 sereno Sereno 24 12 47 1017 10 SE 18.5